C6039 MYNN-MYNN
Flight info
| Callsign | C6039 |
|---|---|
| Flight time | 0h 27m |
| Altitude | 9000 |
| Route | VFR |
| Aircraft | H60/L-DV/C |
Departure
| Time | 2026-05-05 02:28 |
|---|---|
| Airport | Lynden Pindling International Airport (MYNN) |
Arrival
| Time | 2026-05-05 02:55 |
|---|---|
| Airport | Lynden Pindling International Airport (MYNN) |
| Time | Latitude | Longitude | Altitude | Speed | Heading |
|---|---|---|---|---|---|
| 2026-05-05 02:26 | 25.04473 | -77.46264 | 7 ft | 0 kts | 109° |
| 2026-05-05 02:27 | 25.04463 | -77.46221 | 7 ft | 8 kts | 102° |
| 2026-05-05 02:27 | 25.04448 | -77.46165 | 7 ft | 10 kts | 138° |
| 2026-05-05 02:27 | 25.04359 | -77.46100 | 7 ft | 24 kts | 147° |
| 2026-05-05 02:27 | 25.04228 | -77.46109 | 7 ft | 17 kts | 225° |
| 2026-05-05 02:28 | 25.04157 | -77.46164 | 7 ft | 10 kts | 146° |
| 2026-05-05 02:28 | 25.04120 | -77.46129 | 10 ft | 5 kts | 137° |
| 2026-05-05 02:28 | 25.03984 | -77.45990 | 250 ft | 45 kts | 138° |
| 2026-05-05 02:28 | 25.03636 | -77.45630 | 676 ft | 96 kts | 138° |
| 2026-05-05 02:29 | 25.03079 | -77.45020 | 911 ft | 128 kts | 135° |
| 2026-05-05 02:29 | 25.02455 | -77.44318 | 884 ft | 127 kts | 134° |
| 2026-05-05 02:29 | 25.02250 | -77.43429 | 878 ft | 129 kts | 74° |
| 2026-05-05 02:29 | 25.02813 | -77.42683 | 893 ft | 126 kts | 50° |
| 2026-05-05 02:30 | 25.03403 | -77.41968 | 894 ft | 128 kts | 50° |
| 2026-05-05 02:30 | 25.04000 | -77.41249 | 896 ft | 128 kts | 50° |
| 2026-05-05 02:30 | 25.04601 | -77.40519 | 902 ft | 125 kts | 50° |
| 2026-05-05 02:30 | 25.05199 | -77.39800 | 899 ft | 125 kts | 50° |
| 2026-05-05 02:31 | 25.05787 | -77.39082 | 903 ft | 126 kts | 50° |
| 2026-05-05 02:31 | 25.06376 | -77.38366 | 903 ft | 131 kts | 50° |
| 2026-05-05 02:31 | 25.06969 | -77.37641 | 898 ft | 127 kts | 50° |
| 2026-05-05 02:31 | 25.07558 | -77.36927 | 899 ft | 124 kts | 50° |
| 2026-05-05 02:32 | 25.08152 | -77.36218 | 902 ft | 130 kts | 50° |
| 2026-05-05 02:32 | 25.08659 | -77.35434 | 894 ft | 123 kts | 73° |
| 2026-05-05 02:32 | 25.08566 | -77.34430 | 896 ft | 135 kts | 102° |
| 2026-05-05 02:32 | 25.08392 | -77.33468 | 903 ft | 125 kts | 102° |
| 2026-05-05 02:33 | 25.08214 | -77.32507 | 900 ft | 127 kts | 102° |
| 2026-05-05 02:33 | 25.08038 | -77.31550 | 899 ft | 129 kts | 102° |
| 2026-05-05 02:33 | 25.07859 | -77.30591 | 897 ft | 125 kts | 102° |
| 2026-05-05 02:33 | 25.07675 | -77.29628 | 895 ft | 127 kts | 102° |
| 2026-05-05 02:34 | 25.07560 | -77.28671 | 887 ft | 123 kts | 76° |
| 2026-05-05 02:34 | 25.08176 | -77.28252 | 891 ft | 112 kts | 352° |
| 2026-05-05 02:34 | 25.08699 | -77.28998 | 818 ft | 154 kts | 290° |
| 2026-05-05 02:34 | 25.08732 | -77.30236 | 943 ft | 150 kts | 270° |
| 2026-05-05 02:35 | 25.08696 | -77.31282 | 927 ft | 136 kts | 270° |
| 2026-05-05 02:35 | 25.08664 | -77.32321 | 909 ft | 135 kts | 270° |
| 2026-05-05 02:35 | 25.08641 | -77.33337 | 904 ft | 135 kts | 270° |
| 2026-05-05 02:35 | 25.08616 | -77.34370 | 901 ft | 135 kts | 270° |
| 2026-05-05 02:36 | 25.08591 | -77.35408 | 900 ft | 137 kts | 270° |
| 2026-05-05 02:36 | 25.08569 | -77.36445 | 902 ft | 136 kts | 270° |
| 2026-05-05 02:36 | 25.08547 | -77.37480 | 901 ft | 136 kts | 270° |
| 2026-05-05 02:36 | 25.08527 | -77.38520 | 901 ft | 135 kts | 270° |
| 2026-05-05 02:37 | 25.08501 | -77.39556 | 900 ft | 134 kts | 270° |
| 2026-05-05 02:37 | 25.08524 | -77.40572 | 884 ft | 133 kts | 289° |
| 2026-05-05 02:37 | 25.09252 | -77.40790 | 800 ft | 136 kts | 45° |
| 2026-05-05 02:37 | 25.09331 | -77.39751 | 457 ft | 140 kts | 97° |
| 2026-05-05 02:38 | 25.09252 | -77.38784 | 544 ft | 124 kts | 97° |
| 2026-05-05 02:38 | 25.09172 | -77.37814 | 548 ft | 126 kts | 97° |
| 2026-05-05 02:38 | 25.09091 | -77.36854 | 549 ft | 125 kts | 97° |
| 2026-05-05 02:38 | 25.09008 | -77.35895 | 544 ft | 125 kts | 97° |
| 2026-05-05 02:39 | 25.08918 | -77.34943 | 542 ft | 125 kts | 97° |
| 2026-05-05 02:39 | 25.08713 | -77.34019 | 472 ft | 138 kts | 127° |
| 2026-05-05 02:39 | 25.07910 | -77.33457 | 551 ft | 128 kts | 149° |
| 2026-05-05 02:39 | 25.07143 | -77.32961 | 545 ft | 127 kts | 148° |
| 2026-05-05 02:40 | 25.06338 | -77.32932 | 535 ft | 123 kts | 205° |
| 2026-05-05 02:40 | 25.05904 | -77.33783 | 533 ft | 145 kts | 246° |
| 2026-05-05 02:40 | 25.05520 | -77.34775 | 540 ft | 137 kts | 246° |
| 2026-05-05 02:40 | 25.05147 | -77.35744 | 543 ft | 134 kts | 248° |
| 2026-05-05 02:41 | 25.05173 | -77.36315 | 598 ft | 88 kts | 317° |
| 2026-05-05 02:41 | 25.05596 | -77.36212 | 571 ft | 84 kts | 65° |
| 2026-05-05 02:41 | 25.05577 | -77.35667 | 544 ft | 70 kts | 142° |
| 2026-05-05 02:41 | 25.05084 | -77.36011 | 523 ft | 119 kts | 235° |
| 2026-05-05 02:42 | 25.04491 | -77.36805 | 535 ft | 124 kts | 208° |
| 2026-05-05 02:42 | 25.03879 | -77.36475 | 555 ft | 103 kts | 119° |
| 2026-05-05 02:42 | 25.03890 | -77.35676 | 532 ft | 113 kts | 74° |
| 2026-05-05 02:42 | 25.04344 | -77.34874 | 519 ft | 136 kts | 58° |
| 2026-05-05 02:43 | 25.04857 | -77.34036 | 533 ft | 128 kts | 58° |
| 2026-05-05 02:43 | 25.05356 | -77.33231 | 535 ft | 130 kts | 58° |
| 2026-05-05 02:43 | 25.05872 | -77.32398 | 535 ft | 131 kts | 58° |
| 2026-05-05 02:43 | 25.06386 | -77.31577 | 534 ft | 130 kts | 58° |
| 2026-05-05 02:44 | 25.06890 | -77.30758 | 536 ft | 129 kts | 58° |
| 2026-05-05 02:44 | 25.07402 | -77.29925 | 533 ft | 129 kts | 58° |
| 2026-05-05 02:44 | 25.07898 | -77.29111 | 532 ft | 127 kts | 58° |
| 2026-05-05 02:44 | 25.08394 | -77.28312 | 535 ft | 129 kts | 58° |
| 2026-05-05 02:45 | 25.08893 | -77.27501 | 533 ft | 128 kts | 58° |
| 2026-05-05 02:45 | 25.09389 | -77.26686 | 531 ft | 128 kts | 58° |
| 2026-05-05 02:45 | 25.09875 | -77.25879 | 531 ft | 130 kts | 58° |
| 2026-05-05 02:45 | 25.10374 | -77.25077 | 530 ft | 124 kts | 58° |
| 2026-05-05 02:46 | 25.10877 | -77.24262 | 527 ft | 128 kts | 58° |
| 2026-05-05 02:46 | 25.11525 | -77.23858 | 538 ft | 104 kts | 353° |
| 2026-05-05 02:46 | 25.11824 | -77.24534 | 535 ft | 122 kts | 278° |
| 2026-05-05 02:46 | 25.11968 | -77.25614 | 525 ft | 143 kts | 280° |
| 2026-05-05 02:47 | 25.12129 | -77.26670 | 530 ft | 140 kts | 280° |
| 2026-05-05 02:47 | 25.12295 | -77.27725 | 538 ft | 139 kts | 280° |
| 2026-05-05 02:47 | 25.12450 | -77.28780 | 536 ft | 142 kts | 280° |
| 2026-05-05 02:47 | 25.12600 | -77.29866 | 539 ft | 143 kts | 280° |
| 2026-05-05 02:48 | 25.12755 | -77.30942 | 539 ft | 139 kts | 280° |
| 2026-05-05 02:48 | 25.12902 | -77.32006 | 537 ft | 144 kts | 280° |
| 2026-05-05 02:48 | 25.13053 | -77.33089 | 536 ft | 140 kts | 280° |
| 2026-05-05 02:48 | 25.13208 | -77.34147 | 538 ft | 144 kts | 280° |
| 2026-05-05 02:49 | 25.13381 | -77.35226 | 541 ft | 142 kts | 280° |
| 2026-05-05 02:49 | 25.13544 | -77.36298 | 536 ft | 142 kts | 280° |
| 2026-05-05 02:49 | 25.13719 | -77.37378 | 541 ft | 142 kts | 280° |
| 2026-05-05 02:49 | 25.13773 | -77.38427 | 531 ft | 133 kts | 255° |
| 2026-05-05 02:50 | 25.13300 | -77.39358 | 513 ft | 152 kts | 238° |
| 2026-05-05 02:50 | 25.12794 | -77.40333 | 511 ft | 142 kts | 238° |
| 2026-05-05 02:50 | 25.12296 | -77.41256 | 522 ft | 137 kts | 235° |
| 2026-05-05 02:50 | 25.11611 | -77.41986 | 547 ft | 135 kts | 223° |
| 2026-05-05 02:51 | 25.10938 | -77.42719 | 547 ft | 138 kts | 222° |
| 2026-05-05 02:51 | 25.10311 | -77.43513 | 525 ft | 144 kts | 240° |
| 2026-05-05 02:51 | 25.10246 | -77.44687 | 545 ft | 152 kts | 264° |
| 2026-05-05 02:51 | 25.09775 | -77.45602 | 569 ft | 130 kts | 218° |
| 2026-05-05 02:52 | 25.09084 | -77.46250 | 568 ft | 129 kts | 219° |
| 2026-05-05 02:52 | 25.08372 | -77.46926 | 550 ft | 134 kts | 219° |
| 2026-05-05 02:52 | 25.07678 | -77.47604 | 549 ft | 137 kts | 220° |
| 2026-05-05 02:52 | 25.06925 | -77.48185 | 545 ft | 128 kts | 199° |
| 2026-05-05 02:53 | 25.06063 | -77.48176 | 536 ft | 133 kts | 168° |
| 2026-05-05 02:53 | 25.05362 | -77.47786 | 150 ft | 107 kts | 132° |
| 2026-05-05 02:53 | 25.04785 | -77.47117 | 217 ft | 117 kts | 136° |
| 2026-05-05 02:53 | 25.04171 | -77.46467 | 172 ft | 120 kts | 136° |
| 2026-05-05 02:54 | 25.03564 | -77.45816 | 286 ft | 122 kts | 136° |
| 2026-05-05 02:54 | 25.03033 | -77.45225 | 155 ft | 95 kts | 126° |
| 2026-05-05 02:54 | 25.03238 | -77.44705 | 470 ft | 96 kts | 40° |
| 2026-05-05 02:54 | 25.03946 | -77.44895 | 1092 ft | 118 kts | 323° |
| 2026-05-05 02:55 | 25.04659 | -77.45519 | 354 ft | 149 kts | 324° |
| 2026-05-05 02:55 | 25.05449 | -77.46211 | 149 ft | 137 kts | 323° |
| 2026-05-05 02:55 | 25.05999 | -77.46779 | 153 ft | 80 kts | 307° |
| 2026-05-05 02:55 | 25.06002 | -77.47158 | 126 ft | 43 kts | 223° |
| 2026-05-05 02:56 | 25.05578 | -77.47434 | 338 ft | 101 kts | 189° |
| 2026-05-05 02:56 | 25.05026 | -77.47111 | 139 ft | 77 kts | 134° |
| 2026-05-05 02:56 | 25.04764 | -77.46736 | 28 ft | 48 kts | 125° |
| 2026-05-05 02:56 | 25.04655 | -77.46581 | 125 ft | 17 kts | 124° |
| 2026-05-05 02:57 | 25.04533 | -77.46365 | 66 ft | 43 kts | 124° |
| 2026-05-05 02:57 | 25.04429 | -77.46206 | 41 ft | 3 kts | 125° |
| 2026-05-05 02:57 | 25.04421 | -77.46190 | 12 ft | 2 kts | 127° |
| 2026-05-05 02:57 | 25.04415 | -77.46183 | 8 ft | 0 kts | 128° |